sensor_id;sensor_type;location;lat;lon;timestamp;noise_LAeq;noise_LA_min;noise_LA_max;noise_LA01;noise_LA95
77001;Laerm;65935;51.798;10.954;2023-01-06T00:02:16;27.97;26.58;40.43;;
77001;Laerm;65935;51.798;10.954;2023-01-06T00:04:47;27.15;26.42;32.48;;
77001;Laerm;65935;51.798;10.954;2023-01-06T00:07:15;27.47;26.66;33.81;;
77001;Laerm;65935;51.798;10.954;2023-01-06T00:09:41;27.15;26.58;27.93;;
77001;Laerm;65935;51.798;10.954;2023-01-06T00:12:11;27.14;26.63;27.66;;
77001;Laerm;65935;51.798;10.954;2023-01-06T00:14:39;27.17;26.68;27.77;;
77001;Laerm;65935;51.798;10.954;2023-01-06T00:17:05;27.27;26.60;29.63;;
77001;Laerm;65935;51.798;10.954;2023-01-06T00:19:32;27.19;26.66;30.85;;
77001;Laerm;65935;51.798;10.954;2023-01-06T00:21:57;27.16;26.54;27.71;;
77001;Laerm;65935;51.798;10.954;2023-01-06T00:24:26;27.18;26.58;27.70;;
77001;Laerm;65935;51.798;10.954;2023-01-06T00:26:55;27.29;26.63;30.80;;
77001;Laerm;65935;51.798;10.954;2023-01-06T00:29:20;27.14;26.55;27.66;;
77001;Laerm;65935;51.798;10.954;2023-01-06T00:31:52;27.13;26.64;27.69;;
77001;Laerm;65935;51.798;10.954;2023-01-06T00:34:20;27.16;26.57;28.11;;
77001;Laerm;65935;51.798;10.954;2023-01-06T00:36:46;27.21;26.63;28.14;;
77001;Laerm;65935;51.798;10.954;2023-01-06T00:39:15;27.19;26.53;30.90;;
77001;Laerm;65935;51.798;10.954;2023-01-06T00:41:44;27.17;26.71;27.81;;
77001;Laerm;65935;51.798;10.954;2023-01-06T00:44:09;27.15;26.58;27.77;;
77001;Laerm;65935;51.798;10.954;2023-01-06T00:46:38;27.16;26.58;28.27;;
77001;Laerm;65935;51.798;10.954;2023-01-06T00:49:06;27.15;26.53;30.50;;
77001;Laerm;65935;51.798;10.954;2023-01-06T00:51:33;27.16;26.61;30.47;;
77001;Laerm;65935;51.798;10.954;2023-01-06T00:53:59;27.14;26.59;27.62;;
77001;Laerm;65935;51.798;10.954;2023-01-06T00:56:25;27.15;26.49;29.75;;
77001;Laerm;65935;51.798;10.954;2023-01-06T00:58:57;27.15;26.58;28.00;;
77001;Laerm;65935;51.798;10.954;2023-01-06T01:01:23;27.16;26.64;31.90;;
77001;Laerm;65935;51.798;10.954;2023-01-06T01:03:48;27.16;26.61;27.67;;
77001;Laerm;65935;51.798;10.954;2023-01-06T01:06:14;27.15;26.37;27.78;;
77001;Laerm;65935;51.798;10.954;2023-01-06T01:08:40;27.17;26.63;27.78;;
77001;Laerm;65935;51.798;10.954;2023-01-06T01:11:10;27.14;26.59;27.84;;
77001;Laerm;65935;51.798;10.954;2023-01-06T01:13:42;27.21;26.40;29.57;;
77001;Laerm;65935;51.798;10.954;2023-01-06T01:16:10;27.16;26.55;28.88;;
77001;Laerm;65935;51.798;10.954;2023-01-06T01:18:36;27.23;26.46;29.41;;
77001;Laerm;65935;51.798;10.954;2023-01-06T01:21:05;27.21;26.53;30.77;;
77001;Laerm;65935;51.798;10.954;2023-01-06T01:23:34;27.15;26.56;27.86;;
77001;Laerm;65935;51.798;10.954;2023-01-06T01:25:59;27.17;26.58;28.33;;
77001;Laerm;65935;51.798;10.954;2023-01-06T01:28:29;27.25;26.61;30.32;;
77001;Laerm;65935;51.798;10.954;2023-01-06T01:30:58;27.19;26.57;29.31;;
77001;Laerm;65935;51.798;10.954;2023-01-06T01:33:24;27.21;26.62;28.48;;
77001;Laerm;65935;51.798;10.954;2023-01-06T01:35:55;27.19;26.64;29.58;;
77001;Laerm;65935;51.798;10.954;2023-01-06T01:38:24;27.17;26.65;27.80;;
77001;Laerm;65935;51.798;10.954;2023-01-06T01:40:50;27.22;26.58;29.66;;
77001;Laerm;65935;51.798;10.954;2023-01-06T01:43:16;27.18;26.62;27.86;;
77001;Laerm;65935;51.798;10.954;2023-01-06T01:45:43;27.19;26.65;27.72;;
77001;Laerm;65935;51.798;10.954;2023-01-06T01:48:28;27.17;26.34;27.63;;
77001;Laerm;65935;51.798;10.954;2023-01-06T01:50:58;27.19;26.62;28.81;;
77001;Laerm;65935;51.798;10.954;2023-01-06T01:53:26;27.17;26.65;27.72;;
77001;Laerm;65935;51.798;10.954;2023-01-06T01:55:54;27.19;26.67;30.28;;
77001;Laerm;65935;51.798;10.954;2023-01-06T01:58:23;27.22;26.64;29.49;;
77001;Laerm;65935;51.798;10.954;2023-01-06T02:00:50;27.18;26.61;27.84;;
77001;Laerm;65935;51.798;10.954;2023-01-06T02:03:16;27.17;26.59;28.90;;
77001;Laerm;65935;51.798;10.954;2023-01-06T02:05:43;27.17;26.51;28.09;;
77001;Laerm;65935;51.798;10.954;2023-01-06T02:08:19;27.39;26.66;42.32;;
77001;Laerm;65935;51.798;10.954;2023-01-06T02:10:45;27.23;26.49;28.41;;
77001;Laerm;65935;51.798;10.954;2023-01-06T02:13:11;27.18;26.48;28.08;;
77001;Laerm;65935;51.798;10.954;2023-01-06T02:15:42;27.27;26.59;29.01;;
77001;Laerm;65935;51.798;10.954;2023-01-06T02:20:57;27.20;26.66;28.38;;
77001;Laerm;65935;51.798;10.954;2023-01-06T02:28:44;27.37;26.61;31.99;;
77001;Laerm;65935;51.798;10.954;2023-01-06T02:31:28;27.16;26.61;27.83;;
77001;Laerm;65935;51.798;10.954;2023-01-06T02:39:18;27.14;26.47;27.74;;
77001;Laerm;65935;51.798;10.954;2023-01-06T02:44:53;27.16;26.60;28.06;;
77001;Laerm;65935;51.798;10.954;2023-01-06T02:47:34;27.82;26.65;45.74;;
77001;Laerm;65935;51.798;10.954;2023-01-06T02:50:10;27.63;26.64;43.08;;
77001;Laerm;65935;51.798;10.954;2023-01-06T02:52:51;27.21;26.67;28.11;;
77001;Laerm;65935;51.798;10.954;2023-01-06T02:55:22;27.17;26.61;27.87;;
77001;Laerm;65935;51.798;10.954;2023-01-06T03:00:30;27.17;26.62;27.78;;
77001;Laerm;65935;51.798;10.954;2023-01-06T03:02:58;27.16;26.59;28.15;;
77001;Laerm;65935;51.798;10.954;2023-01-06T03:05:25;27.16;26.61;27.88;;
77001;Laerm;65935;51.798;10.954;2023-01-06T03:07:57;27.19;26.64;28.19;;
77001;Laerm;65935;51.798;10.954;2023-01-06T03:10:27;27.17;26.57;27.83;;
77001;Laerm;65935;51.798;10.954;2023-01-06T03:12:59;27.14;26.65;27.60;;
77001;Laerm;65935;51.798;10.954;2023-01-06T03:15:27;27.15;26.61;27.62;;
77001;Laerm;65935;51.798;10.954;2023-01-06T03:17:53;27.17;26.56;30.47;;
77001;Laerm;65935;51.798;10.954;2023-01-06T03:20:19;27.15;26.62;29.59;;
77001;Laerm;65935;51.798;10.954;2023-01-06T03:22:45;27.15;26.52;27.73;;
77001;Laerm;65935;51.798;10.954;2023-01-06T03:25:15;27.18;26.49;36.16;;
77001;Laerm;65935;51.798;10.954;2023-01-06T03:27:44;27.14;26.49;31.74;;
77001;Laerm;65935;51.798;10.954;2023-01-06T03:30:10;27.15;26.53;32.45;;
77001;Laerm;65935;51.798;10.954;2023-01-06T03:32:41;27.13;26.53;30.73;;
77001;Laerm;65935;51.798;10.954;2023-01-06T03:37:49;27.14;26.60;31.31;;
77001;Laerm;65935;51.798;10.954;2023-01-06T03:40:19;27.25;26.62;40.64;;
77001;Laerm;65935;51.798;10.954;2023-01-06T03:42:52;27.12;26.60;27.70;;
77001;Laerm;65935;51.798;10.954;2023-01-06T03:45:23;27.60;26.64;34.69;;
77001;Laerm;65935;51.798;10.954;2023-01-06T03:47:54;27.13;26.56;27.59;;
77001;Laerm;65935;51.798;10.954;2023-01-06T03:50:27;27.12;26.61;27.70;;
77001;Laerm;65935;51.798;10.954;2023-01-06T03:55:35;27.12;26.44;27.70;;
77001;Laerm;65935;51.798;10.954;2023-01-06T03:58:02;27.13;26.59;29.50;;
77001;Laerm;65935;51.798;10.954;2023-01-06T04:00:34;27.18;26.62;38.59;;
77001;Laerm;65935;51.798;10.954;2023-01-06T04:03:22;27.19;26.50;29.20;;
77001;Laerm;65935;51.798;10.954;2023-01-06T04:05:49;27.38;26.60;30.86;;
77001;Laerm;65935;51.798;10.954;2023-01-06T04:08:15;27.16;26.64;27.67;;
77001;Laerm;65935;51.798;10.954;2023-01-06T04:10:41;27.13;26.57;27.64;;
77001;Laerm;65935;51.798;10.954;2023-01-06T04:13:11;27.84;26.63;36.85;;
77001;Laerm;65935;51.798;10.954;2023-01-06T04:15:39;27.18;26.62;30.18;;
77001;Laerm;65935;51.798;10.954;2023-01-06T04:18:05;28.29;26.61;38.95;;
77001;Laerm;65935;51.798;10.954;2023-01-06T04:20:31;27.30;26.73;34.04;;
77001;Laerm;65935;51.798;10.954;2023-01-06T04:22:58;27.40;26.57;32.18;;
77001;Laerm;65935;51.798;10.954;2023-01-06T04:25:28;27.13;26.63;27.64;;
77001;Laerm;65935;51.798;10.954;2023-01-06T04:27:56;27.14;26.62;27.66;;
77001;Laerm;65935;51.798;10.954;2023-01-06T04:30:22;27.12;26.54;27.67;;
77001;Laerm;65935;51.798;10.954;2023-01-06T04:32:48;27.15;26.59;27.66;;
77001;Laerm;65935;51.798;10.954;2023-01-06T04:35:14;27.16;26.62;27.76;;
77001;Laerm;65935;51.798;10.954;2023-01-06T04:37:40;27.12;26.45;27.75;;
77001;Laerm;65935;51.798;10.954;2023-01-06T04:40:06;27.13;26.64;27.82;;
77001;Laerm;65935;51.798;10.954;2023-01-06T04:42:33;27.13;26.53;27.69;;
77001;Laerm;65935;51.798;10.954;2023-01-06T04:44:59;27.12;26.55;27.73;;
77001;Laerm;65935;51.798;10.954;2023-01-06T04:47:25;27.14;26.56;28.22;;
77001;Laerm;65935;51.798;10.954;2023-01-06T04:49:51;27.15;26.58;27.67;;
77001;Laerm;65935;51.798;10.954;2023-01-06T04:52:18;27.49;26.69;40.24;;
77001;Laerm;65935;51.798;10.954;2023-01-06T04:54:44;27.17;26.55;28.75;;
77001;Laerm;65935;51.798;10.954;2023-01-06T04:57:10;27.14;26.65;27.65;;
77001;Laerm;65935;51.798;10.954;2023-01-06T04:59:40;27.22;26.66;28.30;;
77001;Laerm;65935;51.798;10.954;2023-01-06T05:02:08;27.27;26.72;27.87;;
77001;Laerm;65935;51.798;10.954;2023-01-06T05:04:34;27.32;26.71;29.40;;
77001;Laerm;65935;51.798;10.954;2023-01-06T05:07:00;27.38;26.76;30.82;;
77001;Laerm;65935;51.798;10.954;2023-01-06T05:09:26;27.30;26.78;27.85;;
77001;Laerm;65935;51.798;10.954;2023-01-06T05:11:55;27.31;26.79;27.83;;
77001;Laerm;65935;51.798;10.954;2023-01-06T05:14:23;27.26;26.69;27.87;;
77001;Laerm;65935;51.798;10.954;2023-01-06T05:16:49;27.23;26.59;27.79;;
77001;Laerm;65935;51.798;10.954;2023-01-06T05:19:19;27.33;26.73;30.84;;
77001;Laerm;65935;51.798;10.954;2023-01-06T05:21:47;27.26;26.58;28.42;;
77001;Laerm;65935;51.798;10.954;2023-01-06T05:24:12;27.26;26.68;28.31;;
77001;Laerm;65935;51.798;10.954;2023-01-06T05:26:39;27.40;26.69;33.29;;
77001;Laerm;65935;51.798;10.954;2023-01-06T05:29:04;27.26;26.73;27.85;;
77001;Laerm;65935;51.798;10.954;2023-01-06T05:31:30;27.41;26.71;32.23;;
77001;Laerm;65935;51.798;10.954;2023-01-06T05:33:57;27.27;26.75;28.47;;
77001;Laerm;65935;51.798;10.954;2023-01-06T05:36:22;27.55;26.67;32.70;;
77001;Laerm;65935;51.798;10.954;2023-01-06T05:38:52;27.32;26.74;33.21;;
77001;Laerm;65935;51.798;10.954;2023-01-06T05:41:18;27.29;26.73;31.61;;
77001;Laerm;65935;51.798;10.954;2023-01-06T05:43:45;27.28;26.68;28.18;;
77001;Laerm;65935;51.798;10.954;2023-01-06T05:46:10;27.72;26.74;32.33;;
77001;Laerm;65935;51.798;10.954;2023-01-06T05:48:37;27.29;26.79;27.89;;
77001;Laerm;65935;51.798;10.954;2023-01-06T05:51:04;27.26;26.74;27.83;;
77001;Laerm;65935;51.798;10.954;2023-01-06T05:53:34;27.50;26.71;33.80;;
77001;Laerm;65935;51.798;10.954;2023-01-06T05:56:03;27.29;26.63;28.04;;
77001;Laerm;65935;51.798;10.954;2023-01-06T05:58:29;27.40;26.79;29.90;;
77001;Laerm;65935;51.798;10.954;2023-01-06T06:00:55;27.39;26.78;29.37;;
77001;Laerm;65935;51.798;10.954;2023-01-06T06:03:21;27.32;26.76;27.83;;
77001;Laerm;65935;51.798;10.954;2023-01-06T06:05:48;27.59;26.63;33.25;;
77001;Laerm;65935;51.798;10.954;2023-01-06T06:08:13;27.33;26.67;27.90;;
77001;Laerm;65935;51.798;10.954;2023-01-06T06:10:39;27.34;26.81;27.90;;
77001;Laerm;65935;51.798;10.954;2023-01-06T06:13:05;27.32;26.75;29.17;;
77001;Laerm;65935;51.798;10.954;2023-01-06T06:15:34;27.31;26.80;28.73;;
77001;Laerm;65935;51.798;10.954;2023-01-06T06:18:03;27.35;26.60;28.26;;
77001;Laerm;65935;51.798;10.954;2023-01-06T06:20:29;27.65;26.87;31.95;;
77001;Laerm;65935;51.798;10.954;2023-01-06T06:22:58;27.39;26.84;30.72;;
77001;Laerm;65935;51.798;10.954;2023-01-06T06:25:27;27.44;26.78;30.14;;
77001;Laerm;65935;51.798;10.954;2023-01-06T06:27:55;27.39;26.82;30.47;;
77001;Laerm;65935;51.798;10.954;2023-01-06T06:30:22;27.36;26.78;29.55;;
77001;Laerm;65935;51.798;10.954;2023-01-06T06:32:48;27.38;26.80;28.18;;
77001;Laerm;65935;51.798;10.954;2023-01-06T06:35:14;27.33;26.61;28.38;;
77001;Laerm;65935;51.798;10.954;2023-01-06T06:37:40;27.35;26.77;28.65;;
77001;Laerm;65935;51.798;10.954;2023-01-06T06:40:06;27.62;26.75;33.14;;
77001;Laerm;65935;51.798;10.954;2023-01-06T06:42:32;31.14;26.77;59.32;;
77001;Laerm;65935;51.798;10.954;2023-01-06T06:45:01;27.33;26.75;27.91;;
77001;Laerm;65935;51.798;10.954;2023-01-06T06:47:29;27.34;26.71;29.21;;
77001;Laerm;65935;51.798;10.954;2023-01-06T06:49:55;27.37;26.77;28.01;;
77001;Laerm;65935;51.798;10.954;2023-01-06T06:52:21;27.49;26.72;31.49;;
77001;Laerm;65935;51.798;10.954;2023-01-06T06:54:47;27.33;26.87;28.02;;
77001;Laerm;65935;51.798;10.954;2023-01-06T06:57:17;27.58;26.82;31.15;;
77001;Laerm;65935;51.798;10.954;2023-01-06T06:59:42;28.06;27.01;30.97;;
77001;Laerm;65935;51.798;10.954;2023-01-06T07:02:08;27.60;26.83;34.45;;
77001;Laerm;65935;51.798;10.954;2023-01-06T07:04:34;27.38;26.74;28.33;;
77001;Laerm;65935;51.798;10.954;2023-01-06T07:07:00;27.48;26.74;29.73;;
77001;Laerm;65935;51.798;10.954;2023-01-06T07:09:26;27.73;26.84;30.52;;
77001;Laerm;65935;51.798;10.954;2023-01-06T07:11:52;27.42;26.80;28.49;;
77001;Laerm;65935;51.798;10.954;2023-01-06T07:14:22;27.45;26.72;30.26;;
77001;Laerm;65935;51.798;10.954;2023-01-06T07:16:51;27.43;26.81;35.82;;
77001;Laerm;65935;51.798;10.954;2023-01-06T07:19:17;27.50;26.85;29.53;;
77001;Laerm;65935;51.798;10.954;2023-01-06T07:21:42;27.40;26.69;28.62;;
77001;Laerm;65935;51.798;10.954;2023-01-06T07:24:08;27.45;26.72;31.97;;
77001;Laerm;65935;51.798;10.954;2023-01-06T07:26:34;27.44;26.63;31.06;;
77001;Laerm;65935;51.798;10.954;2023-01-06T07:29:00;29.22;26.77;41.90;;
77001;Laerm;65935;51.798;10.954;2023-01-06T07:31:30;27.69;26.76;32.48;;
77001;Laerm;65935;51.798;10.954;2023-01-06T07:33:58;27.35;26.71;28.11;;
77001;Laerm;65935;51.798;10.954;2023-01-06T07:36:24;27.45;26.84;28.37;;
77001;Laerm;65935;51.798;10.954;2023-01-06T07:38:50;27.47;26.69;31.88;;
77001;Laerm;65935;51.798;10.954;2023-01-06T07:41:16;27.61;26.89;31.93;;
77001;Laerm;65935;51.798;10.954;2023-01-06T07:43:42;27.49;26.82;32.79;;
77001;Laerm;65935;51.798;10.954;2023-01-06T07:46:07;27.30;26.66;28.25;;
77001;Laerm;65935;51.798;10.954;2023-01-06T07:48:39;27.49;26.65;32.80;;
77001;Laerm;65935;51.798;10.954;2023-01-06T07:51:06;28.01;26.82;34.62;;
77001;Laerm;65935;51.798;10.954;2023-01-06T07:53:32;27.70;26.72;35.00;;
77001;Laerm;65935;51.798;10.954;2023-01-06T07:55:58;27.64;26.60;41.12;;
77001;Laerm;65935;51.798;10.954;2023-01-06T07:58:24;27.46;26.61;32.95;;
77001;Laerm;65935;51.798;10.954;2023-01-06T08:00:50;27.32;26.65;35.21;;
77001;Laerm;65935;51.798;10.954;2023-01-06T08:03:16;27.29;26.78;28.92;;
77001;Laerm;65935;51.798;10.954;2023-01-06T08:05:43;27.28;26.70;34.59;;
77001;Laerm;65935;51.798;10.954;2023-01-06T08:08:09;27.54;26.67;35.67;;
77001;Laerm;65935;51.798;10.954;2023-01-06T08:10:41;27.53;26.74;31.52;;
77001;Laerm;65935;51.798;10.954;2023-01-06T08:13:08;27.54;26.76;38.00;;
77001;Laerm;65935;51.798;10.954;2023-01-06T08:15:34;27.58;26.77;42.30;;
77001;Laerm;65935;51.798;10.954;2023-01-06T08:18:05;27.34;26.72;29.30;;
77001;Laerm;65935;51.798;10.954;2023-01-06T08:20:34;27.87;26.79;42.14;;
77001;Laerm;65935;51.798;10.954;2023-01-06T08:23:00;33.11;26.82;56.60;;
77001;Laerm;65935;51.798;10.954;2023-01-06T08:25:27;31.13;26.70;56.46;;
77001;Laerm;65935;51.798;10.954;2023-01-06T08:27:52;32.49;26.75;52.64;;
77001;Laerm;65935;51.798;10.954;2023-01-06T08:30:19;27.32;26.64;28.73;;
77001;Laerm;65935;51.798;10.954;2023-01-06T08:32:44;27.26;26.76;28.68;;
77001;Laerm;65935;51.798;10.954;2023-01-06T08:35:11;27.82;26.75;34.45;;
77001;Laerm;65935;51.798;10.954;2023-01-06T08:37:36;27.53;26.77;30.68;;
77001;Laerm;65935;51.798;10.954;2023-01-06T08:40:06;27.50;26.57;32.96;;
77001;Laerm;65935;51.798;10.954;2023-01-06T08:42:35;27.24;26.64;33.16;;
77001;Laerm;65935;51.798;10.954;2023-01-06T08:45:00;27.35;26.67;31.56;;
77001;Laerm;65935;51.798;10.954;2023-01-06T08:47:27;27.31;26.64;28.40;;
77001;Laerm;65935;51.798;10.954;2023-01-06T08:49:53;27.42;26.68;33.58;;
77001;Laerm;65935;51.798;10.954;2023-01-06T08:52:24;28.64;26.70;36.56;;
77001;Laerm;65935;51.798;10.954;2023-01-06T08:54:53;29.16;26.76;39.05;;
77001;Laerm;65935;51.798;10.954;2023-01-06T08:57:18;28.31;26.72;39.43;;
77001;Laerm;65935;51.798;10.954;2023-01-06T08:59:45;27.45;26.65;32.95;;
77001;Laerm;65935;51.798;10.954;2023-01-06T09:02:11;27.82;26.69;35.67;;
77001;Laerm;65935;51.798;10.954;2023-01-06T09:04:37;27.21;26.64;27.93;;
77001;Laerm;65935;51.798;10.954;2023-01-06T09:07:03;27.38;26.64;29.48;;
77001;Laerm;65935;51.798;10.954;2023-01-06T09:09:29;27.94;26.84;33.83;;
77001;Laerm;65935;51.798;10.954;2023-01-06T09:11:55;28.54;26.66;39.21;;
77001;Laerm;65935;51.798;10.954;2023-01-06T09:14:26;27.54;26.76;34.79;;
77001;Laerm;65935;51.798;10.954;2023-01-06T09:16:54;27.34;26.71;30.61;;
77001;Laerm;65935;51.798;10.954;2023-01-06T09:19:20;27.41;26.61;34.82;;
77001;Laerm;65935;51.798;10.954;2023-01-06T09:21:46;28.54;26.80;42.78;;
77001;Laerm;65935;51.798;10.954;2023-01-06T09:24:13;32.95;26.71;47.61;;
77001;Laerm;65935;51.798;10.954;2023-01-06T09:26:39;28.17;26.75;38.58;;
77001;Laerm;65935;51.798;10.954;2023-01-06T09:29:05;28.47;26.74;37.91;;
77001;Laerm;65935;51.798;10.954;2023-01-06T09:31:34;27.41;26.68;31.83;;
77001;Laerm;65935;51.798;10.954;2023-01-06T09:34:03;27.29;26.67;29.99;;
77001;Laerm;65935;51.798;10.954;2023-01-06T09:36:28;27.73;26.62;33.39;;
77001;Laerm;65935;51.798;10.954;2023-01-06T09:38:58;28.01;26.74;43.15;;
77001;Laerm;65935;51.798;10.954;2023-01-06T09:43:55;27.58;26.80;30.98;;
77001;Laerm;65935;51.798;10.954;2023-01-06T09:46:25;27.32;26.67;28.44;;
77001;Laerm;65935;51.798;10.954;2023-01-06T09:48:55;28.05;26.86;35.57;;
77001;Laerm;65935;51.798;10.954;2023-01-06T09:51:23;27.49;26.78;29.54;;
77001;Laerm;65935;51.798;10.954;2023-01-06T09:53:55;27.33;26.65;28.78;;
77001;Laerm;65935;51.798;10.954;2023-01-06T09:56:27;27.57;26.77;30.76;;
77001;Laerm;65935;51.798;10.954;2023-01-06T09:59:06;27.47;26.66;30.43;;
77001;Laerm;65935;51.798;10.954;2023-01-06T10:01:35;27.45;26.80;29.24;;
77001;Laerm;65935;51.798;10.954;2023-01-06T10:04:03;27.41;26.71;32.64;;
77001;Laerm;65935;51.798;10.954;2023-01-06T10:06:36;27.44;26.78;31.81;;
77001;Laerm;65935;51.798;10.954;2023-01-06T10:12:18;28.46;27.02;35.68;;
77001;Laerm;65935;51.798;10.954;2023-01-06T10:14:58;27.82;27.09;29.76;;
77001;Laerm;65935;51.798;10.954;2023-01-06T10:17:42;27.71;26.94;29.83;;
77001;Laerm;65935;51.798;10.954;2023-01-06T10:22:48;28.66;27.00;37.38;;
77001;Laerm;65935;51.798;10.954;2023-01-06T10:25:20;28.06;27.15;32.11;;
77001;Laerm;65935;51.798;10.954;2023-01-06T10:27:53;28.08;27.12;35.32;;
77001;Laerm;65935;51.798;10.954;2023-01-06T10:32:47;28.61;27.10;32.68;;
77001;Laerm;65935;51.798;10.954;2023-01-06T10:35:19;27.88;27.07;31.53;;
77001;Laerm;65935;51.798;10.954;2023-01-06T10:37:49;28.31;27.22;32.11;;
77001;Laerm;65935;51.798;10.954;2023-01-06T10:40:22;29.06;27.24;37.50;;
77001;Laerm;65935;51.798;10.954;2023-01-06T10:42:52;28.03;27.16;30.18;;
77001;Laerm;65935;51.798;10.954;2023-01-06T10:45:20;28.47;27.29;32.52;;
77001;Laerm;65935;51.798;10.954;2023-01-06T10:47:47;28.13;26.98;36.01;;
77001;Laerm;65935;51.798;10.954;2023-01-06T10:50:13;28.02;27.13;30.28;;
77001;Laerm;65935;51.798;10.954;2023-01-06T10:52:40;28.18;26.98;34.55;;
77001;Laerm;65935;51.798;10.954;2023-01-06T10:55:06;28.13;26.95;33.48;;
77001;Laerm;65935;51.798;10.954;2023-01-06T10:57:35;29.10;27.03;41.10;;
77001;Laerm;65935;51.798;10.954;2023-01-06T11:02:31;27.78;26.99;31.26;;
77001;Laerm;65935;51.798;10.954;2023-01-06T11:05:00;28.05;27.02;39.90;;
77001;Laerm;65935;51.798;10.954;2023-01-06T11:07:26;28.38;27.17;32.99;;
77001;Laerm;65935;51.798;10.954;2023-01-06T11:09:53;28.01;27.17;31.14;;
77001;Laerm;65935;51.798;10.954;2023-01-06T11:12:19;28.12;27.21;30.86;;
77001;Laerm;65935;51.798;10.954;2023-01-06T11:14:57;28.50;26.94;39.30;;
77001;Laerm;65935;51.798;10.954;2023-01-06T11:17:24;28.31;26.92;44.66;;
77001;Laerm;65935;51.798;10.954;2023-01-06T11:22:35;30.38;26.92;56.00;;
77001;Laerm;65935;51.798;10.954;2023-01-06T11:25:26;28.89;26.92;39.11;;
77001;Laerm;65935;51.798;10.954;2023-01-06T11:28:37;27.85;26.79;34.18;;
77001;Laerm;65935;51.798;10.954;2023-01-06T11:30:39;27.82;26.94;33.00;;
77001;Laerm;65935;51.798;10.954;2023-01-06T11:33:27;28.07;27.00;39.83;;
77001;Laerm;65935;51.798;10.954;2023-01-06T11:35:54;28.22;27.04;35.90;;
77001;Laerm;65935;51.798;10.954;2023-01-06T11:38:20;27.95;27.16;31.05;;
77001;Laerm;65935;51.798;10.954;2023-01-06T11:40:47;28.09;26.80;34.89;;
77001;Laerm;65935;51.798;10.954;2023-01-06T11:43:18;28.32;27.11;44.83;;
77001;Laerm;65935;51.798;10.954;2023-01-06T11:45:46;28.83;27.03;50.60;;
77001;Laerm;65935;51.798;10.954;2023-01-06T11:50:53;28.55;27.05;45.81;;
77001;Laerm;65935;51.798;10.954;2023-01-06T11:53:20;28.10;26.85;45.55;;
77001;Laerm;65935;51.798;10.954;2023-01-06T11:55:59;28.73;26.81;47.88;;
77001;Laerm;65935;51.798;10.954;2023-01-06T11:58:27;27.75;26.88;42.94;;
77001;Laerm;65935;51.798;10.954;2023-01-06T12:00:58;27.69;26.63;42.33;;
77001;Laerm;65935;51.798;10.954;2023-01-06T12:03:39;28.07;26.94;39.94;;
77001;Laerm;65935;51.798;10.954;2023-01-06T12:11:35;27.54;26.66;31.68;;
77001;Laerm;65935;51.798;10.954;2023-01-06T12:14:06;27.62;26.70;31.35;;
77001;Laerm;65935;51.798;10.954;2023-01-06T12:16:40;27.82;26.66;39.99;;
77001;Laerm;65935;51.798;10.954;2023-01-06T12:19:20;27.79;26.86;36.42;;
77001;Laerm;65935;51.798;10.954;2023-01-06T12:21:50;27.61;26.80;39.02;;
77001;Laerm;65935;51.798;10.954;2023-01-06T12:24:15;28.10;26.81;38.30;;
77001;Laerm;65935;51.798;10.954;2023-01-06T12:26:44;27.65;26.84;33.28;;
77001;Laerm;65935;51.798;10.954;2023-01-06T12:29:13;27.43;26.77;28.63;;
77001;Laerm;65935;51.798;10.954;2023-01-06T12:31:44;27.70;26.82;31.36;;
77001;Laerm;65935;51.798;10.954;2023-01-06T12:36:39;28.30;26.82;34.65;;
77001;Laerm;65935;51.798;10.954;2023-01-06T12:39:10;27.55;26.66;34.79;;
77001;Laerm;65935;51.798;10.954;2023-01-06T12:41:46;27.49;26.77;30.66;;
77001;Laerm;65935;51.798;10.954;2023-01-06T12:46:58;27.51;26.72;32.81;;
77001;Laerm;65935;51.798;10.954;2023-01-06T12:49:46;27.26;26.61;28.34;;
77001;Laerm;65935;51.798;10.954;2023-01-06T12:52:36;27.24;26.69;27.93;;
77001;Laerm;65935;51.798;10.954;2023-01-06T12:55:11;27.66;26.67;34.59;;
77001;Laerm;65935;51.798;10.954;2023-01-06T12:57:45;27.76;26.70;37.87;;
77001;Laerm;65935;51.798;10.954;2023-01-06T13:00:18;27.93;26.77;39.40;;
77001;Laerm;65935;51.798;10.954;2023-01-06T13:02:58;27.50;26.76;31.53;;
77001;Laerm;65935;51.798;10.954;2023-01-06T13:05:46;27.39;26.69;29.75;;
77001;Laerm;65935;51.798;10.954;2023-01-06T13:14:15;27.78;26.68;35.21;;
77001;Laerm;65935;51.798;10.954;2023-01-06T13:18:56;27.97;26.72;42.45;;
77001;Laerm;65935;51.798;10.954;2023-01-06T13:21:24;27.62;26.78;32.52;;
77001;Laerm;65935;51.798;10.954;2023-01-06T13:29:16;27.40;26.74;32.05;;
77001;Laerm;65935;51.798;10.954;2023-01-06T13:31:55;28.96;26.63;44.94;;
77001;Laerm;65935;51.798;10.954;2023-01-06T13:34:41;27.33;26.73;28.95;;
77001;Laerm;65935;51.798;10.954;2023-01-06T13:42:31;27.58;26.73;32.96;;
77001;Laerm;65935;51.798;10.954;2023-01-06T13:45:06;27.72;26.75;32.35;;
77001;Laerm;65935;51.798;10.954;2023-01-06T13:47:37;28.22;26.69;48.64;;
77001;Laerm;65935;51.798;10.954;2023-01-06T13:50:03;29.96;26.76;54.93;;
77001;Laerm;65935;51.798;10.954;2023-01-06T13:52:30;28.55;26.76;50.01;;
77001;Laerm;65935;51.798;10.954;2023-01-06T13:55:04;27.29;26.64;29.85;;
77001;Laerm;65935;51.798;10.954;2023-01-06T13:57:36;27.59;26.63;34.36;;
77001;Laerm;65935;51.798;10.954;2023-01-06T14:05:01;28.84;26.67;48.28;;
77001;Laerm;65935;51.798;10.954;2023-01-06T14:07:33;27.88;26.77;41.75;;
77001;Laerm;65935;51.798;10.954;2023-01-06T14:10:00;28.03;26.70;47.98;;
77001;Laerm;65935;51.798;10.954;2023-01-06T14:12:27;28.09;26.93;35.93;;
77001;Laerm;65935;51.798;10.954;2023-01-06T14:14:58;27.94;26.86;34.03;;
77001;Laerm;65935;51.798;10.954;2023-01-06T14:17:45;27.74;26.82;31.86;;
77001;Laerm;65935;51.798;10.954;2023-01-06T14:20:22;28.31;26.77;33.51;;
77001;Laerm;65935;51.798;10.954;2023-01-06T14:22:57;28.32;27.00;32.74;;
77001;Laerm;65935;51.798;10.954;2023-01-06T14:25:24;28.00;26.58;33.69;;
77001;Laerm;65935;51.798;10.954;2023-01-06T14:35:15;28.53;26.77;38.73;;
77001;Laerm;65935;51.798;10.954;2023-01-06T14:37:45;27.45;26.64;31.66;;
77001;Laerm;65935;51.798;10.954;2023-01-06T14:40:16;27.39;26.67;31.11;;
77001;Laerm;65935;51.798;10.954;2023-01-06T14:42:43;27.83;26.83;36.60;;
77001;Laerm;65935;51.798;10.954;2023-01-06T14:45:22;27.27;26.67;28.07;;
77001;Laerm;65935;51.798;10.954;2023-01-06T14:47:50;27.68;26.68;33.76;;
77001;Laerm;65935;51.798;10.954;2023-01-06T14:53:22;27.48;26.80;29.02;;
77001;Laerm;65935;51.798;10.954;2023-01-06T14:55:49;32.25;26.77;47.69;;
77001;Laerm;65935;51.798;10.954;2023-01-06T14:58:28;27.80;26.86;31.46;;
77001;Laerm;65935;51.798;10.954;2023-01-06T15:00:57;27.54;26.87;30.67;;
77001;Laerm;65935;51.798;10.954;2023-01-06T15:03:25;27.84;26.86;34.19;;
77001;Laerm;65935;51.798;10.954;2023-01-06T15:06:11;27.95;26.89;33.51;;
77001;Laerm;65935;51.798;10.954;2023-01-06T15:08:37;27.59;26.65;31.83;;
77001;Laerm;65935;51.798;10.954;2023-01-06T15:11:23;27.42;26.88;29.18;;